sensor_id;sensor_type;location;lat;lon;timestamp;pressure;altitude;pressure_sealevel;temperature;humidity
40982;BME280;26708;50.304;19.028;2023-06-22T00:01:36;98450.34;;;23.48;58.81
40982;BME280;26708;50.304;19.028;2023-06-22T00:03:43;98322.91;;;22.71;58.78
40982;BME280;26708;50.304;19.028;2023-06-22T00:05:52;98440.09;;;23.40;59.05
40982;BME280;26708;50.304;19.028;2023-06-22T00:07:57;98317.56;;;22.71;58.74
40982;BME280;26708;50.304;19.028;2023-06-22T00:10:04;98356.94;;;22.83;58.76
40982;BME280;26708;50.304;19.028;2023-06-22T00:12:10;98448.19;;;23.39;58.93
40982;BME280;26708;50.304;19.028;2023-06-22T00:14:14;98404.69;;;23.20;59.03
40982;BME280;26708;50.304;19.028;2023-06-22T00:16:20;98127.50;;;21.54;59.02
40982;BME280;26708;50.304;19.028;2023-06-22T00:18:25;98401.66;;;22.95;59.04
40982;BME280;26708;50.304;19.028;2023-06-22T00:20:32;98462.22;;;23.27;59.21
40982;BME280;26708;50.304;19.028;2023-06-22T00:22:42;98465.00;;;23.41;59.34
40982;BME280;26708;50.304;19.028;2023-06-22T00:24:46;98329.72;;;22.61;59.21
40982;BME280;26708;50.304;19.028;2023-06-22T00:29:31;98284.88;;;22.18;59.67
40982;BME280;26708;50.304;19.028;2023-06-22T00:31:36;98546.59;;;23.48;60.03
40982;BME280;26708;50.304;19.028;2023-06-22T00:33:40;98384.03;;;22.60;59.93
40982;BME280;26708;50.304;19.028;2023-06-22T00:35:46;98215.78;;;21.64;59.97
40982;BME280;26708;50.304;19.028;2023-06-22T00:37:57;98467.59;;;22.94;59.93
40982;BME280;26708;50.304;19.028;2023-06-22T00:40:06;98190.19;;;21.44;60.16
40982;BME280;26708;50.304;19.028;2023-06-22T00:42:14;98339.81;;;22.22;60.29
40982;BME280;26708;50.304;19.028;2023-06-22T00:44:19;98341.81;;;22.34;60.45
40982;BME280;26708;50.304;19.028;2023-06-22T00:46:26;98232.59;;;21.66;60.52
40982;BME280;26708;50.304;19.028;2023-06-22T00:48:32;98315.34;;;22.14;60.48
40982;BME280;26708;50.304;19.028;2023-06-22T00:50:39;98409.16;;;22.39;60.74
40982;BME280;26708;50.304;19.028;2023-06-22T00:52:45;98524.16;;;23.18;60.84
40982;BME280;26708;50.304;19.028;2023-06-22T00:54:53;98314.31;;;21.82;61.01
40982;BME280;26708;50.304;19.028;2023-06-22T00:57:03;98165.03;;;21.16;60.91
40982;BME280;26708;50.304;19.028;2023-06-22T00:59:13;98259.06;;;21.69;60.75
40982;BME280;26708;50.304;19.028;2023-06-22T01:01:19;98446.28;;;22.60;60.82
40982;BME280;26708;50.304;19.028;2023-06-22T01:03:26;98463.06;;;22.79;60.89
40982;BME280;26708;50.304;19.028;2023-06-22T01:05:31;98422.31;;;22.42;60.88
40982;BME280;26708;50.304;19.028;2023-06-22T01:07:45;98360.69;;;22.14;60.88
40982;BME280;26708;50.304;19.028;2023-06-22T01:12:42;98443.66;;;22.42;61.10
40982;BME280;26708;50.304;19.028;2023-06-22T01:14:58;98441.03;;;22.59;60.95
40982;BME280;26708;50.304;19.028;2023-06-22T01:17:12;98424.44;;;22.52;60.89
40982;BME280;26708;50.304;19.028;2023-06-22T01:19:38;98439.34;;;22.56;61.07
40982;BME280;26708;50.304;19.028;2023-06-22T01:21:49;98422.78;;;22.33;60.91
40982;BME280;26708;50.304;19.028;2023-06-22T01:24:10;98436.13;;;22.50;60.81
40982;BME280;26708;50.304;19.028;2023-06-22T01:26:32;98369.72;;;22.11;60.61
40982;BME280;26708;50.304;19.028;2023-06-22T01:28:49;98374.72;;;22.17;60.57
40982;BME280;26708;50.304;19.028;2023-06-22T01:30:58;98290.56;;;21.78;60.67
40982;BME280;26708;50.304;19.028;2023-06-22T01:33:10;98228.59;;;21.40;60.63
40982;BME280;26708;50.304;19.028;2023-06-22T01:35:20;98553.50;;;23.02;60.73
40982;BME280;26708;50.304;19.028;2023-06-22T01:37:27;98335.09;;;21.76;60.62
40982;BME280;26708;50.304;19.028;2023-06-22T01:39:34;98369.19;;;22.05;60.62
40982;BME280;26708;50.304;19.028;2023-06-22T01:44:41;98305.69;;;21.60;60.46
40982;BME280;26708;50.304;19.028;2023-06-22T01:46:49;98349.88;;;22.00;60.58
40982;BME280;26708;50.304;19.028;2023-06-22T01:48:55;98353.31;;;22.02;60.60
40982;BME280;26708;50.304;19.028;2023-06-22T01:51:01;98450.41;;;22.49;60.58
40982;BME280;26708;50.304;19.028;2023-06-22T01:53:08;98362.56;;;21.95;60.59
40982;BME280;26708;50.304;19.028;2023-06-22T01:55:13;98465.91;;;22.59;60.62
40982;BME280;26708;50.304;19.028;2023-06-22T01:57:18;98279.69;;;21.48;60.56
40982;BME280;26708;50.304;19.028;2023-06-22T01:59:31;98337.38;;;21.83;60.42
40982;BME280;26708;50.304;19.028;2023-06-22T02:01:52;98549.75;;;22.89;60.51
40982;BME280;26708;50.304;19.028;2023-06-22T02:04:06;98394.00;;;22.05;60.61
40982;BME280;26708;50.304;19.028;2023-06-22T02:06:24;98325.75;;;21.67;60.41
40982;BME280;26708;50.304;19.028;2023-06-22T02:08:41;98463.84;;;22.47;60.74
40982;BME280;26708;50.304;19.028;2023-06-22T02:10:54;98523.44;;;22.82;60.71
40982;BME280;26708;50.304;19.028;2023-06-22T02:13:06;98369.44;;;21.82;60.56
40982;BME280;26708;50.304;19.028;2023-06-22T02:15:13;98374.44;;;21.88;60.51
40982;BME280;26708;50.304;19.028;2023-06-22T02:17:26;98170.09;;;20.69;60.66
40982;BME280;26708;50.304;19.028;2023-06-22T02:19:38;98241.69;;;21.09;60.80
40982;BME280;26708;50.304;19.028;2023-06-22T02:21:45;98355.31;;;21.63;60.76
40982;BME280;26708;50.304;19.028;2023-06-22T02:23:50;98477.56;;;22.40;60.91
40982;BME280;26708;50.304;19.028;2023-06-22T02:25:56;98405.53;;;21.89;60.86
40982;BME280;26708;50.304;19.028;2023-06-22T02:28:01;98542.53;;;22.74;61.01
40982;BME280;26708;50.304;19.028;2023-06-22T02:30:07;98251.50;;;20.90;60.93
40982;BME280;26708;50.304;19.028;2023-06-22T02:32:15;98344.94;;;21.57;60.87
40982;BME280;26708;50.304;19.028;2023-06-22T02:34:24;98293.00;;;21.13;60.87
40982;BME280;26708;50.304;19.028;2023-06-22T02:36:29;98458.72;;;22.26;61.12
40982;BME280;26708;50.304;19.028;2023-06-22T02:38:36;98310.63;;;21.34;61.15
40982;BME280;26708;50.304;19.028;2023-06-22T02:40:41;98396.56;;;21.73;61.31
40982;BME280;26708;50.304;19.028;2023-06-22T02:42:46;98509.91;;;22.34;61.23
40982;BME280;26708;50.304;19.028;2023-06-22T02:44:52;98418.56;;;21.76;61.20
40982;BME280;26708;50.304;19.028;2023-06-22T02:46:57;98484.81;;;22.21;61.36
40982;BME280;26708;50.304;19.028;2023-06-22T02:49:04;98263.78;;;20.76;61.24
40982;BME280;26708;50.304;19.028;2023-06-22T02:51:14;98388.44;;;21.40;61.54
40982;BME280;26708;50.304;19.028;2023-06-22T02:53:19;98462.97;;;21.96;61.28
40982;BME280;26708;50.304;19.028;2023-06-22T02:55:24;98278.56;;;20.81;61.42
40982;BME280;26708;50.304;19.028;2023-06-22T02:57:35;98230.28;;;20.53;61.59
40982;BME280;26708;50.304;19.028;2023-06-22T02:59:57;98237.03;;;20.42;61.40
40982;BME280;26708;50.304;19.028;2023-06-22T03:02:51;98244.41;;;20.36;61.61
40982;BME280;26708;50.304;19.028;2023-06-22T03:06:07;98458.22;;;21.65;61.59
40982;BME280;26708;50.304;19.028;2023-06-22T03:08:30;98242.13;;;20.47;61.59
40982;BME280;26708;50.304;19.028;2023-06-22T03:10:40;98605.91;;;22.52;61.81
40982;BME280;26708;50.304;19.028;2023-06-22T03:12:47;98424.63;;;21.44;61.78
40982;BME280;26708;50.304;19.028;2023-06-22T03:15:15;98269.59;;;20.65;61.52
40982;BME280;26708;50.304;19.028;2023-06-22T03:17:22;98408.50;;;21.47;61.67
40982;BME280;26708;50.304;19.028;2023-06-22T03:19:31;98245.22;;;20.56;61.67
40982;BME280;26708;50.304;19.028;2023-06-22T03:21:40;98278.59;;;20.63;61.64
40982;BME280;26708;50.304;19.028;2023-06-22T03:23:47;98378.28;;;21.30;61.59
40982;BME280;26708;50.304;19.028;2023-06-22T03:25:52;98274.06;;;20.65;61.84
40982;BME280;26708;50.304;19.028;2023-06-22T03:27:58;98230.00;;;20.41;61.82
40982;BME280;26708;50.304;19.028;2023-06-22T03:30:04;98389.94;;;21.27;61.77
40982;BME280;26708;50.304;19.028;2023-06-22T03:32:14;98530.44;;;22.15;61.79
40982;BME280;26708;50.304;19.028;2023-06-22T03:34:23;98369.78;;;21.03;61.74
40982;BME280;26708;50.304;19.028;2023-06-22T03:36:55;98226.50;;;20.02;61.85
40982;BME280;26708;50.304;19.028;2023-06-22T04:35:18;98318.63;;;21.51;62.67
40982;BME280;26708;50.304;19.028;2023-06-22T04:38:13;98254.47;;;21.20;62.46
40982;BME280;26708;50.304;19.028;2023-06-22T04:43:55;98605.75;;;23.25;62.55
40982;BME280;26708;50.304;19.028;2023-06-22T04:46:42;98253.53;;;21.04;62.68
40982;BME280;26708;50.304;19.028;2023-06-22T04:54:39;98529.75;;;22.45;63.10
40982;BME280;26708;50.304;19.028;2023-06-22T06:15:09;98676.00;;;24.41;58.71
40982;BME280;26708;50.304;19.028;2023-06-22T06:17:29;98681.34;;;24.41;58.80
40982;BME280;26708;50.304;19.028;2023-06-22T06:20:33;98341.41;;;22.41;59.18
40982;BME280;26708;50.304;19.028;2023-06-22T06:47:10;98442.47;;;23.14;54.38
40982;BME280;26708;50.304;19.028;2023-06-22T06:49:40;98694.06;;;24.69;54.38
40982;BME280;26708;50.304;19.028;2023-06-22T07:23:20;98690.16;;;25.05;52.40
40982;BME280;26708;50.304;19.028;2023-06-22T09:00:26;98573.69;;;25.38;44.86
40982;BME280;26708;50.304;19.028;2023-06-22T10:29:22;98670.78;;;27.22;41.61
40982;BME280;26708;50.304;19.028;2023-06-22T11:10:54;98637.38;;;27.76;39.16
40982;BME280;26708;50.304;19.028;2023-06-22T11:13:09;98348.56;;;25.90;40.52
40982;BME280;26708;50.304;19.028;2023-06-22T12:03:17;98549.03;;;27.70;38.22
40982;BME280;26708;50.304;19.028;2023-06-22T12:08:34;98427.59;;;26.89;38.75
40982;BME280;26708;50.304;19.028;2023-06-22T12:49:58;98338.91;;;26.76;39.43
40982;BME280;26708;50.304;19.028;2023-06-22T14:42:18;98505.22;;;28.75;35.68
40982;BME280;26708;50.304;19.028;2023-06-22T15:12:19;98154.00;;;26.81;35.37
40982;BME280;26708;50.304;19.028;2023-06-22T15:20:23;98337.81;;;27.87;35.60
40982;BME280;26708;50.304;19.028;2023-06-22T15:22:34;98143.00;;;26.61;35.42
40982;BME280;26708;50.304;19.028;2023-06-22T15:27:25;98342.78;;;27.80;36.07
40982;BME280;26708;50.304;19.028;2023-06-22T15:35:14;98279.53;;;27.51;35.11
40982;BME280;26708;50.304;19.028;2023-06-22T15:37:21;98462.19;;;28.73;34.90
40982;BME280;26708;50.304;19.028;2023-06-22T15:39:26;98488.28;;;28.73;35.34
40982;BME280;26708;50.304;19.028;2023-06-22T15:44:26;98398.25;;;28.06;34.18
40982;BME280;26708;50.304;19.028;2023-06-22T15:46:30;98469.16;;;28.65;34.21
40982;BME280;26708;50.304;19.028;2023-06-22T15:48:36;98469.28;;;28.63;35.04
40982;BME280;26708;50.304;19.028;2023-06-22T15:50:49;98418.28;;;28.26;34.46
40982;BME280;26708;50.304;19.028;2023-06-22T15:52:58;98257.56;;;27.34;35.43
40982;BME280;26708;50.304;19.028;2023-06-22T15:55:09;98424.03;;;28.45;34.83
40982;BME280;26708;50.304;19.028;2023-06-22T15:57:43;98406.69;;;28.36;34.58
40982;BME280;26708;50.304;19.028;2023-06-22T15:59:52;98472.94;;;28.62;35.04
40982;BME280;26708;50.304;19.028;2023-06-22T16:01:58;98371.91;;;27.99;35.50
40982;BME280;26708;50.304;19.028;2023-06-22T16:04:04;98481.00;;;28.62;35.53
40982;BME280;26708;50.304;19.028;2023-06-22T16:06:08;98298.94;;;27.67;35.51
40982;BME280;26708;50.304;19.028;2023-06-22T16:08:14;98207.94;;;27.14;35.15
40982;BME280;26708;50.304;19.028;2023-06-22T16:10:49;98286.13;;;27.47;35.66
40982;BME280;26708;50.304;19.028;2023-06-22T16:32:28;98254.50;;;27.15;36.42
40982;BME280;26708;50.304;19.028;2023-06-22T16:34:33;98383.78;;;28.07;36.11
40982;BME280;26708;50.304;19.028;2023-06-22T16:36:49;98312.16;;;27.47;36.58
40982;BME280;26708;50.304;19.028;2023-06-22T17:52:53;98340.50;;;27.40;40.54
40982;BME280;26708;50.304;19.028;2023-06-22T17:55:02;98065.13;;;25.76;40.31
40982;BME280;26708;50.304;19.028;2023-06-22T17:57:17;98067.19;;;25.73;40.46
40982;BME280;26708;50.304;19.028;2023-06-22T17:59:36;98112.72;;;26.10;40.80
40982;BME280;26708;50.304;19.028;2023-06-22T18:01:44;98250.22;;;26.89;41.00
40982;BME280;26708;50.304;19.028;2023-06-22T18:07:29;98323.84;;;27.22;40.96
40982;BME280;26708;50.304;19.028;2023-06-22T18:10:18;98370.41;;;27.71;41.16
40982;BME280;26708;50.304;19.028;2023-06-22T18:19:25;98025.84;;;25.50;41.61
40982;BME280;26708;50.304;19.028;2023-06-22T18:21:49;98213.66;;;26.74;41.44
40982;BME280;26708;50.304;19.028;2023-06-22T18:23:55;98280.88;;;27.10;41.32
40982;BME280;26708;50.304;19.028;2023-06-22T18:26:05;98323.28;;;27.30;41.41
40982;BME280;26708;50.304;19.028;2023-06-22T18:28:13;98295.72;;;27.15;41.31
40982;BME280;26708;50.304;19.028;2023-06-22T18:30:26;98247.97;;;26.83;41.26
40982;BME280;26708;50.304;19.028;2023-06-22T18:32:39;98254.19;;;26.83;41.76
40982;BME280;26708;50.304;19.028;2023-06-22T18:34:44;98320.41;;;27.20;41.93
40982;BME280;26708;50.304;19.028;2023-06-22T18:36:56;98361.38;;;27.24;41.78
40982;BME280;26708;50.304;19.028;2023-06-22T18:39:07;98377.75;;;27.33;42.20
40982;BME280;26708;50.304;19.028;2023-06-22T18:41:33;98368.59;;;27.36;42.43
40982;BME280;26708;50.304;19.028;2023-06-22T18:44:02;98178.00;;;26.11;42.29
40982;BME280;26708;50.304;19.028;2023-06-22T18:46:34;98369.25;;;27.27;42.59
40982;BME280;26708;50.304;19.028;2023-06-22T18:48:41;98251.34;;;26.36;42.63
40982;BME280;26708;50.304;19.028;2023-06-22T18:50:46;98327.38;;;26.74;42.86
40982;BME280;26708;50.304;19.028;2023-06-22T18:53:01;98324.69;;;26.74;43.33
40982;BME280;26708;50.304;19.028;2023-06-22T18:55:12;98324.69;;;26.62;43.58
40982;BME280;26708;50.304;19.028;2023-06-22T18:57:25;98382.56;;;26.92;43.61
40982;BME280;26708;50.304;19.028;2023-06-22T18:59:48;98376.97;;;26.83;44.13
40982;BME280;26708;50.304;19.028;2023-06-22T19:01:54;98206.50;;;25.62;44.42
40982;BME280;26708;50.304;19.028;2023-06-22T19:04:15;98342.22;;;26.55;44.27
40982;BME280;26708;50.304;19.028;2023-06-22T19:09:13;98389.28;;;26.60;44.90
40982;BME280;26708;50.304;19.028;2023-06-22T19:11:26;98360.06;;;26.43;45.14
40982;BME280;26708;50.304;19.028;2023-06-22T19:13:45;98243.94;;;25.51;45.29
40982;BME280;26708;50.304;19.028;2023-06-22T19:15:54;98270.63;;;25.79;45.29
40982;BME280;26708;50.304;19.028;2023-06-22T19:18:15;98407.22;;;26.47;45.27
40982;BME280;26708;50.304;19.028;2023-06-22T19:20:31;98142.63;;;24.91;45.74
40982;BME280;26708;50.304;19.028;2023-06-22T19:22:49;98404.97;;;26.41;45.81
40982;BME280;26708;50.304;19.028;2023-06-22T19:25:17;98344.19;;;26.01;45.79
40982;BME280;26708;50.304;19.028;2023-06-22T19:27:29;98219.41;;;25.18;45.72
40982;BME280;26708;50.304;19.028;2023-06-22T19:29:37;98182.03;;;24.89;45.81
40982;BME280;26708;50.304;19.028;2023-06-22T19:31:47;98346.38;;;25.82;46.07
40982;BME280;26708;50.304;19.028;2023-06-22T19:48:23;98217.34;;;24.95;46.63
